Currently 59°F in Hemet, California, USA
59°F
60°F / 47°F
1 mph NW
0.00"
Sunday, February 5, 2023 12:03 PM PST

Hemet, California Weather Summary
Last 36 Hours

Temperature Winds Hourly Humidity Dewpoint
Time Report Norm Report Norm Max Gusts Precip. Rpt. Norm Rpt. Norm Pressure
1Sun 12:03 PM  59.2°F  62°F  1 mph NW  1 mph  5 mph  0.00"  59%  37%  44°F  35°F  30.21"
Sun 12:00 PM  59.0°F  62°F  1 mph W  1 mph  10 mph  0.00"  61%  37%  45°F  35°F  30.21"
2Sun 11:03 AM  60.2°F  60°F  calm  1 mph  2 mph  ----  59%  40%  45°F  35°F  30.24"
Sun 11:00 AM  59.9°F  60°F  calm  1 mph  5 mph  0.00"  60%  40%  45°F  35°F  30.24"
Sun 10:00 AM  59.3°F  57°F  calm  1 mph  1 mph  0.00"  60%  45%  45°F  35°F  30.24"
Sun 09:00 AM  52.2°F  55°F  calm  calm  1 mph  0.00"  60%  48%  38°F  34°F  30.23"
Sun 08:00 AM  49.5°F  50°F  calm  1 mph  none  0.00"  61%  51%  36°F  32°F  30.22"
Sun 07:00 AM  47.4°F  47°F  calm  1 mph  none  0.00"  62%  52%  34°F  30°F  30.21"
3Sun 06:42 AM  46.5°F  47°F  calm  1 mph  none  ----  63%  52%  34°F  30°F  30.20"
Sun 06:00 AM  47.1°F  47°F  calm  1 mph  none  0.00"  62%  52%  34°F  30°F  30.18"
Sun 05:00 AM  48.3°F  47°F  calm  1 mph  none  0.00"  58%  52%  34°F  30°F  30.19"
Sun 04:00 AM  48.5°F  48°F  calm  1 mph  none  0.00"  56%  52%  33°F  30°F  30.18"
Sun 03:00 AM  48.3°F  48°F  calm  calm  none  0.00"  57%  52%  33°F  30°F  30.19"
Sun 02:00 AM  49.2°F  48°F  calm  1 mph  none  0.00"  55%  52%  33°F  31°F  30.19"
Sun 01:00 AM  49.2°F  49°F  calm  calm  1 mph  0.00"  52%  52%  32°F  31°F  30.19"
Sun 12:01 AM  50.1°F  49°F  calm  1 mph  none  0.00"  53%  52%  33°F  31°F  30.19"
Sat 11:00 PM  48.9°F  50°F  calm  1 mph  none  0.00"  54%  51%  32°F  32°F  30.21"
Sat 10:00 PM  51.6°F  51°F  calm  1 mph  none  0.00"  43%  51%  29°F  32°F  30.21"
Sat 09:00 PM  52.6°F  51°F  calm  1 mph  none  0.00"  43%  50%  30°F  33°F  30.21"
Sat 08:00 PM  53.9°F  52°F  calm  1 mph  none  0.00"  39%  49%  28°F  33°F  30.20"
Sat 07:00 PM  55.9°F  54°F  calm  1 mph  1 mph  0.00"  35%  48%  27°F  34°F  30.18"
Sat 06:00 PM  60.9°F  57°F  calm  1 mph  none  0.00"  31%  45%  29°F  35°F  30.17"
Sat 05:00 PM  67.1°F  62°F  calm  1 mph  6 mph  0.00"  29%  40%  33°F  36°F  30.16"
Sat 04:00 PM  71.1°F  65°F  1 mph SW  2 mph  3 mph  0.00"  19%  35%  25°F  35°F  30.15"
Sat 03:00 PM  72.0°F  65°F  calm  2 mph  3 mph  0.01"  16%  34%  21°F  35°F  30.15"
Sat 02:00 PM  71.3°F  65°F  calm  2 mph  7 mph  0.00"  15%  34%  19°F  35°F  30.16"
Sat 01:00 PM  68.9°F  64°F  3 mph W  2 mph  10 mph  0.00"  18%  35%  22°F  35°F  30.16"
Sat 12:00 PM  69.1°F  62°F  calm  1 mph  2 mph  0.00"  20%  37%  25°F  35°F  30.16"
Sat 11:00 AM  64.7°F  60°F  calm  1 mph  3 mph  0.00"  25%  41%  27°F  35°F  30.21"
Sat 10:00 AM  63.5°F  57°F  calm  1 mph  none  0.00"  25%  45%  26°F  35°F  30.21"
Sat 09:00 AM  60.7°F  55°F  calm  calm  none  0.00"  21%  48%  19°F  35°F  30.20"
Sat 08:00 AM  49.8°F  50°F  calm  1 mph  1 mph  0.00"  26%  51%  15°F  32°F  30.20"
Sat 07:00 AM  47.0°F  47°F  calm  1 mph  1 mph  0.00"  26%  53%  12°F  30°F  30.19"
Sat 06:00 AM  46.8°F  47°F  calm  1 mph  2 mph  0.00"  27%  53%  13°F  30°F  30.18"
Sat 05:00 AM  48.0°F  47°F  calm  1 mph  2 mph  0.00"  30%  53%  17°F  30°F  30.17"
Sat 04:00 AM  46.5°F  48°F  calm  1 mph  1 mph  0.00"  32%  53%  17°F  30°F  30.16"
Sat 03:00 AM  46.1°F  48°F  calm  calm  none  0.00"  35%  53%  19°F  31°F  30.18"
Sat 02:00 AM  48.3°F  48°F  calm  1 mph  3 mph  0.00"  38%  52%  23°F  31°F  30.19"
Sat 01:00 AM  47.7°F  49°F  calm  1 mph  1 mph  0.00"  41%  52%  24°F  31°F  30.20"

  1. Current weather data. No green row appears if the current weather data is also the high or low for the current day.
  2. High temperature for the current day.
  3. Low temperature for the current day.

The Hemet weather pages are a service of WeatherCurrents. Hemet, California is located in the San Jacinto Valley, in western Riverside County, at the foot of the San Jacinto mountains.
Copyright ©2023  WeatherCurrents. All rights reserved. - Submit questions and comments - Privacy Policy

This page automatically refreshes every 10 minutes.